sensor_id;sensor_type;location;lat;lon;timestamp;pressure;altitude;pressure_sealevel;temperature;humidity
71195;BME280;58908;51.426;7.714;2023-01-26T00:00:53;100685.63;;;-2.16;100.00
71195;BME280;58908;51.426;7.714;2023-01-26T00:03:20;100689.16;;;-2.07;100.00
71195;BME280;58908;51.426;7.714;2023-01-26T00:05:46;100693.47;;;-2.04;100.00
71195;BME280;58908;51.426;7.714;2023-01-26T00:08:13;100681.41;;;-2.01;100.00
71195;BME280;58908;51.426;7.714;2023-01-26T00:10:40;100685.78;;;-2.00;100.00
71195;BME280;58908;51.426;7.714;2023-01-26T00:13:16;100684.03;;;-1.99;100.00
71195;BME280;58908;51.426;7.714;2023-01-26T00:15:42;100680.59;;;-2.00;100.00
71195;BME280;58908;51.426;7.714;2023-01-26T00:18:09;100685.69;;;-2.07;100.00
71195;BME280;58908;51.426;7.714;2023-01-26T00:20:35;100678.81;;;-2.04;100.00
71195;BME280;58908;51.426;7.714;2023-01-26T00:23:01;100670.22;;;-2.03;100.00
71195;BME280;58908;51.426;7.714;2023-01-26T00:25:27;100674.41;;;-2.17;100.00
71195;BME280;58908;51.426;7.714;2023-01-26T00:27:54;100666.66;;;-2.17;100.00
71195;BME280;58908;51.426;7.714;2023-01-26T00:30:22;100670.09;;;-2.19;100.00
71195;BME280;58908;51.426;7.714;2023-01-26T00:32:48;100660.63;;;-2.22;100.00
71195;BME280;58908;51.426;7.714;2023-01-26T00:35:15;100664.88;;;-2.24;100.00
71195;BME280;58908;51.426;7.714;2023-01-26T00:37:41;100658.88;;;-2.24;100.00
71195;BME280;58908;51.426;7.714;2023-01-26T00:40:08;100651.97;;;-2.22;100.00
71195;BME280;58908;51.426;7.714;2023-01-26T00:42:34;100645.97;;;-2.21;100.00
71195;BME280;58908;51.426;7.714;2023-01-26T00:45:00;100651.09;;;-2.27;100.00
71195;BME280;58908;51.426;7.714;2023-01-26T00:47:28;100646.75;;;-2.28;100.00
71195;BME280;58908;51.426;7.714;2023-01-26T00:49:54;100644.22;;;-2.22;100.00
71195;BME280;58908;51.426;7.714;2023-01-26T00:52:20;100637.34;;;-2.23;100.00
71195;BME280;58908;51.426;7.714;2023-01-26T00:54:47;100638.22;;;-2.18;100.00
71195;BME280;58908;51.426;7.714;2023-01-26T00:57:13;100633.06;;;-2.20;100.00
71195;BME280;58908;51.426;7.714;2023-01-26T00:59:39;100627.94;;;-2.15;100.00
71195;BME280;58908;51.426;7.714;2023-01-26T01:02:05;100621.88;;;-2.16;100.00
71195;BME280;58908;51.426;7.714;2023-01-26T01:04:33;100609.00;;;-2.11;100.00
71195;BME280;58908;51.426;7.714;2023-01-26T01:06:59;100610.69;;;-2.12;100.00
71195;BME280;58908;51.426;7.714;2023-01-26T01:09:25;100602.94;;;-2.15;100.00
71195;BME280;58908;51.426;7.714;2023-01-26T01:11:52;100601.22;;;-2.13;100.00
71195;BME280;58908;51.426;7.714;2023-01-26T01:14:18;100605.56;;;-2.10;100.00
71195;BME280;58908;51.426;7.714;2023-01-26T01:16:44;100599.53;;;-2.11;100.00
71195;BME280;58908;51.426;7.714;2023-01-26T01:19:11;100600.31;;;-2.19;100.00
71195;BME280;58908;51.426;7.714;2023-01-26T01:21:39;100591.72;;;-2.18;100.00
71195;BME280;58908;51.426;7.714;2023-01-26T01:24:06;100595.19;;;-2.15;100.00
71195;BME280;58908;51.426;7.714;2023-01-26T01:26:32;100597.78;;;-2.15;100.00
71195;BME280;58908;51.426;7.714;2023-01-26T01:28:58;100586.59;;;-2.12;100.00
71195;BME280;58908;51.426;7.714;2023-01-26T01:31:25;100587.44;;;-2.12;100.00
71195;BME280;58908;51.426;7.714;2023-01-26T01:33:53;100589.19;;;-2.09;100.00
71195;BME280;58908;51.426;7.714;2023-01-26T01:36:19;100592.63;;;-2.10;100.00
71195;BME280;58908;51.426;7.714;2023-01-26T01:38:47;100591.81;;;-2.05;100.00
71195;BME280;58908;51.426;7.714;2023-01-26T01:41:14;100586.66;;;-2.05;100.00
71195;BME280;58908;51.426;7.714;2023-01-26T01:43:41;100590.13;;;-2.01;100.00
71195;BME280;58908;51.426;7.714;2023-01-26T01:46:10;100584.97;;;-1.98;100.00
71195;BME280;58908;51.426;7.714;2023-01-26T01:48:41;100594.47;;;-1.94;100.00
71195;BME280;58908;51.426;7.714;2023-01-26T01:51:12;100583.25;;;-1.95;100.00
71195;BME280;58908;51.426;7.714;2023-01-26T01:53:41;100578.94;;;-1.96;100.00
71195;BME280;58908;51.426;7.714;2023-01-26T01:56:11;100576.38;;;-1.96;100.00
71195;BME280;58908;51.426;7.714;2023-01-26T01:58:39;100570.34;;;-1.93;100.00
71195;BME280;58908;51.426;7.714;2023-01-26T02:01:07;100566.00;;;-1.97;100.00
71195;BME280;58908;51.426;7.714;2023-01-26T02:03:34;100570.31;;;-1.96;100.00
71195;BME280;58908;51.426;7.714;2023-01-26T02:06:03;100562.56;;;-1.96;100.00
71195;BME280;58908;51.426;7.714;2023-01-26T02:08:32;100563.44;;;-1.96;100.00
71195;BME280;58908;51.426;7.714;2023-01-26T02:10:59;100558.25;;;-2.00;100.00
71195;BME280;58908;51.426;7.714;2023-01-26T02:13:30;100555.66;;;-1.97;100.00
71195;BME280;58908;51.426;7.714;2023-01-26T02:15:57;100543.63;;;-1.95;100.00
71195;BME280;58908;51.426;7.714;2023-01-26T02:18:24;100551.31;;;-2.03;100.00
71195;BME280;58908;51.426;7.714;2023-01-26T02:20:52;100547.06;;;-1.98;100.00
71195;BME280;58908;51.426;7.714;2023-01-26T02:23:23;100549.63;;;-1.96;100.00
71195;BME280;58908;51.426;7.714;2023-01-26T02:26:01;100553.09;;;-1.96;100.00
71195;BME280;58908;51.426;7.714;2023-01-26T02:28:28;100548.81;;;-1.94;100.00
71195;BME280;58908;51.426;7.714;2023-01-26T02:30:54;100537.63;;;-1.91;100.00
71195;BME280;58908;51.426;7.714;2023-01-26T02:33:22;100526.41;;;-1.92;100.00
71195;BME280;58908;51.426;7.714;2023-01-26T02:35:48;100525.53;;;-1.97;100.00
71195;BME280;58908;51.426;7.714;2023-01-26T02:38:15;100531.56;;;-1.95;100.00
71195;BME280;58908;51.426;7.714;2023-01-26T02:40:43;100527.25;;;-1.99;100.00
71195;BME280;58908;51.426;7.714;2023-01-26T02:43:15;100518.63;;;-1.99;100.00
71195;BME280;58908;51.426;7.714;2023-01-26T02:45:40;100513.44;;;-1.99;100.00
71195;BME280;58908;51.426;7.714;2023-01-26T02:48:07;100516.94;;;-1.94;100.00
71195;BME280;58908;51.426;7.714;2023-01-26T02:50:33;100515.22;;;-1.89;100.00
71195;BME280;58908;51.426;7.714;2023-01-26T02:52:58;100527.28;;;-1.85;100.00
71195;BME280;58908;51.426;7.714;2023-01-26T02:55:25;100527.28;;;-1.88;100.00
71195;BME280;58908;51.426;7.714;2023-01-26T02:57:52;100527.28;;;-1.94;100.00
71195;BME280;58908;51.426;7.714;2023-01-26T03:00:20;100524.69;;;-1.90;100.00
71195;BME280;58908;51.426;7.714;2023-01-26T03:02:47;100518.66;;;-1.90;100.00
71195;BME280;58908;51.426;7.714;2023-01-26T03:05:15;100525.53;;;-1.91;100.00
71195;BME280;58908;51.426;7.714;2023-01-26T03:07:41;100526.44;;;-1.89;100.00
71195;BME280;58908;51.426;7.714;2023-01-26T03:10:08;100528.97;;;-1.95;100.00
71195;BME280;58908;51.426;7.714;2023-01-26T03:12:34;100524.66;;;-1.96;100.00
71195;BME280;58908;51.426;7.714;2023-01-26T03:15:00;100522.94;;;-1.94;100.00
71195;BME280;58908;51.426;7.714;2023-01-26T03:17:46;100514.34;;;-1.93;100.00
71195;BME280;58908;51.426;7.714;2023-01-26T03:20:12;100511.75;;;-1.93;100.00
71195;BME280;58908;51.426;7.714;2023-01-26T03:22:56;100514.34;;;-1.96;100.00
71195;BME280;58908;51.426;7.714;2023-01-26T03:25:51;100514.34;;;-1.93;100.00
71195;BME280;58908;51.426;7.714;2023-01-26T03:28:35;100521.19;;;-1.99;100.00
71195;BME280;58908;51.426;7.714;2023-01-26T03:31:01;100521.19;;;-2.05;100.00
71195;BME280;58908;51.426;7.714;2023-01-26T03:33:32;100519.41;;;-2.12;100.00
71195;BME280;58908;51.426;7.714;2023-01-26T03:35:58;100517.72;;;-2.06;100.00
71195;BME280;58908;51.426;7.714;2023-01-26T03:38:25;100511.66;;;-2.09;100.00
71195;BME280;58908;51.426;7.714;2023-01-26T03:40:51;100517.72;;;-2.09;100.00
71195;BME280;58908;51.426;7.714;2023-01-26T03:43:39;100514.22;;;-2.17;100.00
71195;BME280;58908;51.426;7.714;2023-01-26T03:46:23;100521.16;;;-2.10;100.00
71195;BME280;58908;51.426;7.714;2023-01-26T03:49:08;100522.91;;;-2.03;100.00
71195;BME280;58908;51.426;7.714;2023-01-26T03:51:52;100517.78;;;-1.97;100.00
71195;BME280;58908;51.426;7.714;2023-01-26T03:54:36;100514.34;;;-1.91;100.00
71195;BME280;58908;51.426;7.714;2023-01-26T03:57:20;100516.94;;;-1.93;100.00
71195;BME280;58908;51.426;7.714;2023-01-26T03:59:47;100515.19;;;-1.95;100.00
71195;BME280;58908;51.426;7.714;2023-01-26T04:02:13;100522.94;;;-1.97;100.00
71195;BME280;58908;51.426;7.714;2023-01-26T04:04:58;100523.78;;;-1.96;100.00
71195;BME280;58908;51.426;7.714;2023-01-26T04:07:42;100522.94;;;-1.94;100.00
71195;BME280;58908;51.426;7.714;2023-01-26T04:10:26;100515.19;;;-2.00;100.00
71195;BME280;58908;51.426;7.714;2023-01-26T04:12:52;100521.19;;;-2.02;100.00
71195;BME280;58908;51.426;7.714;2023-01-26T04:15:36;100518.63;;;-1.96;100.00
71195;BME280;58908;51.426;7.714;2023-01-26T04:18:21;100517.78;;;-1.91;100.00
71195;BME280;58908;51.426;7.714;2023-01-26T04:21:06;100516.09;;;-1.90;100.00
71195;BME280;58908;51.426;7.714;2023-01-26T04:23:51;100516.06;;;-1.92;100.00
71195;BME280;58908;51.426;7.714;2023-01-26T04:26:18;100518.66;;;-1.95;100.00
71195;BME280;58908;51.426;7.714;2023-01-26T04:28:44;100512.63;;;-1.89;100.00
71195;BME280;58908;51.426;7.714;2023-01-26T04:31:11;100517.81;;;-1.89;100.00
71195;BME280;58908;51.426;7.714;2023-01-26T04:33:37;100517.78;;;-1.91;100.00
71195;BME280;58908;51.426;7.714;2023-01-26T04:36:03;100512.63;;;-1.89;100.00
71195;BME280;58908;51.426;7.714;2023-01-26T04:38:31;100517.84;;;-1.85;100.00
71195;BME280;58908;51.426;7.714;2023-01-26T04:40:57;100517.00;;;-1.82;100.00
71195;BME280;58908;51.426;7.714;2023-01-26T04:43:24;100516.09;;;-1.86;100.00
71195;BME280;58908;51.426;7.714;2023-01-26T04:45:56;100508.38;;;-1.81;100.00
71195;BME280;58908;51.426;7.714;2023-01-26T04:48:22;100517.84;;;-1.80;100.00
71195;BME280;58908;51.426;7.714;2023-01-26T04:50:51;100514.38;;;-1.85;100.00
71195;BME280;58908;51.426;7.714;2023-01-26T04:53:18;100514.38;;;-1.84;100.00
71195;BME280;58908;51.426;7.714;2023-01-26T04:55:45;100511.81;;;-1.84;100.00
71195;BME280;58908;51.426;7.714;2023-01-26T04:58:11;100504.00;;;-1.93;100.00
71195;BME280;58908;51.426;7.714;2023-01-26T05:00:38;100508.31;;;-1.90;100.00
71195;BME280;58908;51.426;7.714;2023-01-26T05:03:04;100516.09;;;-1.87;100.00
71195;BME280;58908;51.426;7.714;2023-01-26T05:05:33;100511.72;;;-1.97;100.00
71195;BME280;58908;51.426;7.714;2023-01-26T05:08:00;100505.72;;;-1.98;100.00
71195;BME280;58908;51.426;7.714;2023-01-26T05:10:26;100496.28;;;-1.87;100.00
71195;BME280;58908;51.426;7.714;2023-01-26T05:12:54;100502.31;;;-1.85;100.00
71195;BME280;58908;51.426;7.714;2023-01-26T05:15:20;100500.63;;;-1.81;100.00
71195;BME280;58908;51.426;7.714;2023-01-26T05:17:46;100495.44;;;-1.78;100.00
71195;BME280;58908;51.426;7.714;2023-01-26T05:20:12;100498.91;;;-1.78;100.00
71195;BME280;58908;51.426;7.714;2023-01-26T05:22:38;100495.47;;;-1.77;100.00
71195;BME280;58908;51.426;7.714;2023-01-26T05:25:05;100500.63;;;-1.75;100.00
71195;BME280;58908;51.426;7.714;2023-01-26T05:27:31;100494.59;;;-1.73;100.00
71195;BME280;58908;51.426;7.714;2023-01-26T05:29:59;100498.91;;;-1.75;100.00
71195;BME280;58908;51.426;7.714;2023-01-26T05:32:25;100499.75;;;-1.77;100.00
71195;BME280;58908;51.426;7.714;2023-01-26T05:34:52;100510.09;;;-1.80;100.00
71195;BME280;58908;51.426;7.714;2023-01-26T05:37:18;100504.94;;;-1.80;100.00
71195;BME280;58908;51.426;7.714;2023-01-26T05:39:45;100502.34;;;-1.74;100.00
71195;BME280;58908;51.426;7.714;2023-01-26T05:42:11;100513.53;;;-1.78;100.00
71195;BME280;58908;51.426;7.714;2023-01-26T05:44:38;100510.03;;;-1.91;100.00
71195;BME280;58908;51.426;7.714;2023-01-26T05:47:05;100516.13;;;-1.81;100.00
71195;BME280;58908;51.426;7.714;2023-01-26T05:49:32;100513.59;;;-1.72;100.00
71195;BME280;58908;51.426;7.714;2023-01-26T05:51:58;100514.44;;;-1.72;100.00
71195;BME280;58908;51.426;7.714;2023-01-26T05:54:25;100516.13;;;-1.75;100.00
71195;BME280;58908;51.426;7.714;2023-01-26T05:56:51;100519.59;;;-1.73;100.00
71195;BME280;58908;51.426;7.714;2023-01-26T05:59:18;100517.00;;;-1.72;100.00
71195;BME280;58908;51.426;7.714;2023-01-26T06:01:44;100522.16;;;-1.73;100.00
71195;BME280;58908;51.426;7.714;2023-01-26T06:04:12;100524.75;;;-1.73;100.00
71195;BME280;58908;51.426;7.714;2023-01-26T06:06:38;100523.00;;;-1.79;100.00
71195;BME280;58908;51.426;7.714;2023-01-26T06:09:04;100524.78;;;-1.78;100.00
71195;BME280;58908;51.426;7.714;2023-01-26T06:11:30;100522.19;;;-1.72;100.00
71195;BME280;58908;51.426;7.714;2023-01-26T06:13:57;100526.50;;;-1.72;100.00
71195;BME280;58908;51.426;7.714;2023-01-26T06:16:23;100526.50;;;-1.72;100.00
71195;BME280;58908;51.426;7.714;2023-01-26T06:18:49;100529.97;;;-1.67;100.00
71195;BME280;58908;51.426;7.714;2023-01-26T06:21:17;100530.84;;;-1.64;100.00
71195;BME280;58908;51.426;7.714;2023-01-26T06:23:43;100527.41;;;-1.63;100.00
71195;BME280;58908;51.426;7.714;2023-01-26T06:26:09;100529.13;;;-1.62;100.00
71195;BME280;58908;51.426;7.714;2023-01-26T06:28:36;100523.94;;;-1.65;100.00
71195;BME280;58908;51.426;7.714;2023-01-26T06:31:02;100522.22;;;-1.63;100.00
71195;BME280;58908;51.426;7.714;2023-01-26T06:33:30;100527.41;;;-1.63;100.00
71195;BME280;58908;51.426;7.714;2023-01-26T06:35:59;100529.16;;;-1.60;100.00
71195;BME280;58908;51.426;7.714;2023-01-26T06:38:27;100518.75;;;-1.69;100.00
71195;BME280;58908;51.426;7.714;2023-01-26T06:40:53;100530.81;;;-1.65;100.00
71195;BME280;58908;51.426;7.714;2023-01-26T06:43:19;100529.97;;;-1.67;100.00
71195;BME280;58908;51.426;7.714;2023-01-26T06:45:46;100525.66;;;-1.68;100.00
71195;BME280;58908;51.426;7.714;2023-01-26T06:48:13;100529.97;;;-1.64;100.00
71195;BME280;58908;51.426;7.714;2023-01-26T06:50:39;100530.84;;;-1.61;100.00
71195;BME280;58908;51.426;7.714;2023-01-26T06:53:19;100538.56;;;-1.67;100.00
71195;BME280;58908;51.426;7.714;2023-01-26T06:55:51;100538.59;;;-1.65;100.00
71195;BME280;58908;51.426;7.714;2023-01-26T06:58:17;100540.31;;;-1.70;100.00
71195;BME280;58908;51.426;7.714;2023-01-26T07:00:43;100542.00;;;-1.68;100.00
71195;BME280;58908;51.426;7.714;2023-01-26T07:03:10;100536.88;;;-1.66;100.00
71195;BME280;58908;51.426;7.714;2023-01-26T07:05:36;100531.69;;;-1.69;100.00
71195;BME280;58908;51.426;7.714;2023-01-26T07:08:02;100537.72;;;-1.67;100.00
71195;BME280;58908;51.426;7.714;2023-01-26T07:10:30;100538.59;;;-1.64;100.00
71195;BME280;58908;51.426;7.714;2023-01-26T07:12:58;100532.59;;;-1.58;100.00
71195;BME280;58908;51.426;7.714;2023-01-26T07:15:24;100534.31;;;-1.57;100.00
71195;BME280;58908;51.426;7.714;2023-01-26T07:17:50;100536.03;;;-1.56;100.00
71195;BME280;58908;51.426;7.714;2023-01-26T07:20:16;100528.28;;;-1.59;100.00
71195;BME280;58908;51.426;7.714;2023-01-26T07:22:43;100535.16;;;-1.57;100.00
71195;BME280;58908;51.426;7.714;2023-01-26T07:25:09;100529.16;;;-1.53;100.00
71195;BME280;58908;51.426;7.714;2023-01-26T07:27:35;100529.19;;;-1.48;100.00
71195;BME280;58908;51.426;7.714;2023-01-26T07:30:03;100533.47;;;-1.46;100.00
71195;BME280;58908;51.426;7.714;2023-01-26T07:32:30;100526.59;;;-1.45;100.00
71195;BME280;58908;51.426;7.714;2023-01-26T07:34:56;100524.00;;;-1.47;100.00
71195;BME280;58908;51.426;7.714;2023-01-26T07:37:25;100521.41;;;-1.47;100.00
71195;BME280;58908;51.426;7.714;2023-01-26T07:39:52;100510.22;;;-1.43;100.00
71195;BME280;58908;51.426;7.714;2023-01-26T07:42:18;100517.13;;;-1.42;100.00
71195;BME280;58908;51.426;7.714;2023-01-26T07:44:44;100518.84;;;-1.39;100.00
71195;BME280;58908;51.426;7.714;2023-01-26T07:47:12;100526.63;;;-1.36;100.00
71195;BME280;58908;51.426;7.714;2023-01-26T07:49:38;100522.31;;;-1.34;100.00
71195;BME280;58908;51.426;7.714;2023-01-26T07:52:05;100520.56;;;-1.34;100.00
71195;BME280;58908;51.426;7.714;2023-01-26T07:54:32;100525.75;;;-1.32;100.00
71195;BME280;58908;51.426;7.714;2023-01-26T07:56:58;100524.06;;;-1.32;100.00
71195;BME280;58908;51.426;7.714;2023-01-26T07:59:25;100516.25;;;-1.35;100.00
71195;BME280;58908;51.426;7.714;2023-01-26T08:01:51;100524.91;;;-1.31;100.00
71195;BME280;58908;51.426;7.714;2023-01-26T08:04:19;100530.94;;;-1.29;100.00
71195;BME280;58908;51.426;7.714;2023-01-26T08:06:45;100533.53;;;-1.32;100.00
71195;BME280;58908;51.426;7.714;2023-01-26T08:09:11;100527.50;;;-1.30;100.00
71195;BME280;58908;51.426;7.714;2023-01-26T08:11:37;100530.94;;;-1.31;100.00
71195;BME280;58908;51.426;7.714;2023-01-26T08:14:04;100533.53;;;-1.29;100.00
71195;BME280;58908;51.426;7.714;2023-01-26T08:16:30;100537.00;;;-1.29;100.00
71195;BME280;58908;51.426;7.714;2023-01-26T08:18:56;100536.13;;;-1.26;100.00
71195;BME280;58908;51.426;7.714;2023-01-26T08:21:24;100536.16;;;-1.22;100.00
71195;BME280;58908;51.426;7.714;2023-01-26T08:23:50;100534.44;;;-1.17;100.00
71195;BME280;58908;51.426;7.714;2023-01-26T08:26:17;100543.03;;;-1.15;100.00
71195;BME280;58908;51.426;7.714;2023-01-26T08:28:44;100543.06;;;-1.13;100.00
71195;BME280;58908;51.426;7.714;2023-01-26T08:31:10;100548.25;;;-1.13;100.00
71195;BME280;58908;51.426;7.714;2023-01-26T08:33:37;100540.47;;;-1.15;100.00
71195;BME280;58908;51.426;7.714;2023-01-26T08:36:05;100548.22;;;-1.15;100.00
71195;BME280;58908;51.426;7.714;2023-01-26T08:38:33;100540.47;;;-1.13;100.00
71195;BME280;58908;51.426;7.714;2023-01-26T08:41:00;100548.22;;;-1.12;100.00
71195;BME280;58908;51.426;7.714;2023-01-26T08:43:27;100551.69;;;-1.16;100.00
71195;BME280;58908;51.426;7.714;2023-01-26T08:45:53;100550.81;;;-1.13;100.00
71195;BME280;58908;51.426;7.714;2023-01-26T08:48:19;100553.41;;;-1.18;100.00
71195;BME280;58908;51.426;7.714;2023-01-26T08:50:46;100550.81;;;-1.12;100.00
71195;BME280;58908;51.426;7.714;2023-01-26T08:53:12;100554.25;;;-1.13;100.00
71195;BME280;58908;51.426;7.714;2023-01-26T08:55:40;100557.72;;;-1.15;100.00
71195;BME280;58908;51.426;7.714;2023-01-26T08:58:06;100549.94;;;-1.21;100.00
71195;BME280;58908;51.426;7.714;2023-01-26T09:00:32;100553.38;;;-1.22;100.00
71195;BME280;58908;51.426;7.714;2023-01-26T09:02:59;100559.44;;;-1.17;100.00
71195;BME280;58908;51.426;7.714;2023-01-26T09:05:25;100555.13;;;-1.12;100.00
71195;BME280;58908;51.426;7.714;2023-01-26T09:07:52;100556.88;;;-1.07;100.00
71195;BME280;58908;51.426;7.714;2023-01-26T09:10:18;100555.16;;;-1.02;100.00
71195;BME280;58908;51.426;7.714;2023-01-26T09:12:46;100560.34;;;-1.00;100.00
71195;BME280;58908;51.426;7.714;2023-01-26T09:15:12;100564.66;;;-1.05;100.00
71195;BME280;58908;51.426;7.714;2023-01-26T09:17:38;100568.97;;;-1.01;100.00
71195;BME280;58908;51.426;7.714;2023-01-26T09:20:07;100565.50;;;-1.00;100.00
71195;BME280;58908;51.426;7.714;2023-01-26T09:22:33;100567.25;;;-1.02;100.00
71195;BME280;58908;51.426;7.714;2023-01-26T09:25:00;100571.56;;;-0.98;100.00
71195;BME280;58908;51.426;7.714;2023-01-26T09:27:26;100571.56;;;-0.92;100.00
71195;BME280;58908;51.426;7.714;2023-01-26T09:29:54;100567.25;;;-0.98;100.00
71195;BME280;58908;51.426;7.714;2023-01-26T09:32:20;100570.72;;;-0.99;100.00
71195;BME280;58908;51.426;7.714;2023-01-26T09:34:47;100572.41;;;-1.02;100.00
71195;BME280;58908;51.426;7.714;2023-01-26T09:37:13;100565.50;;;-0.97;100.00
71195;BME280;58908;51.426;7.714;2023-01-26T09:39:39;100574.16;;;-0.83;100.00
71195;BME280;58908;51.426;7.714;2023-01-26T09:42:16;100568.97;;;-0.83;100.00
71195;BME280;58908;51.426;7.714;2023-01-26T09:44:48;100570.75;;;-0.70;100.00
71195;BME280;58908;51.426;7.714;2023-01-26T09:47:19;100575.06;;;-0.60;100.00
71195;BME280;58908;51.426;7.714;2023-01-26T09:49:52;100575.91;;;-0.52;100.00
71195;BME280;58908;51.426;7.714;2023-01-26T09:52:21;100576.78;;;-0.44;100.00
71195;BME280;58908;51.426;7.714;2023-01-26T09:54:51;100574.19;;;-0.41;100.00
71195;BME280;58908;51.426;7.714;2023-01-26T09:57:18;100573.31;;;-0.43;100.00
71195;BME280;58908;51.426;7.714;2023-01-26T09:59:47;100571.63;;;-0.38;100.00
71195;BME280;58908;51.426;7.714;2023-01-26T10:02:27;100570.72;;;-0.45;100.00
71195;BME280;58908;51.426;7.714;2023-01-26T10:04:57;100569.88;;;-0.44;100.00
71195;BME280;58908;51.426;7.714;2023-01-26T10:07:26;100562.13;;;-0.44;100.00
71195;BME280;58908;51.426;7.714;2023-01-26T10:09:52;100567.25;;;-0.39;100.00
71195;BME280;58908;51.426;7.714;2023-01-26T10:12:21;100556.94;;;-0.44;100.00
71195;BME280;58908;51.426;7.714;2023-01-26T10:14:49;100551.72;;;-0.42;100.00
71195;BME280;58908;51.426;7.714;2023-01-26T10:17:17;100550.88;;;-0.58;100.00
71195;BME280;58908;51.426;7.714;2023-01-26T10:19:47;100551.72;;;-0.51;100.00
71195;BME280;58908;51.426;7.714;2023-01-26T10:22:17;100555.19;;;-0.48;100.00
71195;BME280;58908;51.426;7.714;2023-01-26T10:24:46;100550.88;;;-0.62;100.00
71195;BME280;58908;51.426;7.714;2023-01-26T10:27:14;100555.19;;;-0.61;100.00
71195;BME280;58908;51.426;7.714;2023-01-26T10:29:40;100547.41;;;-0.60;100.00
71195;BME280;58908;51.426;7.714;2023-01-26T10:32:08;100545.69;;;-0.58;100.00
71195;BME280;58908;51.426;7.714;2023-01-26T10:34:36;100550.88;;;-0.61;100.00
71195;BME280;58908;51.426;7.714;2023-01-26T10:37:12;100550.88;;;-0.68;100.00
71195;BME280;58908;51.426;7.714;2023-01-26T10:39:54;100549.16;;;-0.71;100.00
71195;BME280;58908;51.426;7.714;2023-01-26T10:42:21;100545.72;;;-0.59;100.00
71195;BME280;58908;51.426;7.714;2023-01-26T10:44:47;100542.22;;;-0.48;100.00
71195;BME280;58908;51.426;7.714;2023-01-26T10:47:16;100535.34;;;-0.43;100.00
71195;BME280;58908;51.426;7.714;2023-01-26T10:49:43;100543.09;;;-0.40;100.00
71195;BME280;58908;51.426;7.714;2023-01-26T10:52:15;100540.50;;;-0.35;100.00
71195;BME280;58908;51.426;7.714;2023-01-26T10:54:42;100536.16;;;-0.29;100.00
71195;BME280;58908;51.426;7.714;2023-01-26T10:57:19;100533.59;;;-0.33;100.00
71195;BME280;58908;51.426;7.714;2023-01-26T10:59:49;100533.56;;;-0.30;100.00
71195;BME280;58908;51.426;7.714;2023-01-26T11:02:20;100533.59;;;-0.27;100.00
71195;BME280;58908;51.426;7.714;2023-01-26T11:05:00;100525.81;;;-0.32;100.00
71195;BME280;58908;51.426;7.714;2023-01-26T11:07:30;100521.47;;;-0.31;100.00
71195;BME280;58908;51.426;7.714;2023-01-26T11:09:57;100520.63;;;-0.33;100.00
71195;BME280;58908;51.426;7.714;2023-01-26T11:12:40;100518.03;;;-0.24;100.00
71195;BME280;58908;51.426;7.714;2023-01-26T11:15:14;100518.00;;;-0.21;100.00
71195;BME280;58908;51.426;7.714;2023-01-26T11:17:42;100516.28;;;-0.22;100.00
71195;BME280;58908;51.426;7.714;2023-01-26T11:20:19;100511.13;;;-0.31;100.00
71195;BME280;58908;51.426;7.714;2023-01-26T11:22:56;100511.16;;;-0.37;100.00
71195;BME280;58908;51.426;7.714;2023-01-26T11:25:24;100506.81;;;-0.35;100.00
71195;BME280;58908;51.426;7.714;2023-01-26T11:27:52;100514.56;;;-0.32;100.00
71195;BME280;58908;51.426;7.714;2023-01-26T11:30:31;100509.41;;;-0.37;100.00
71195;BME280;58908;51.426;7.714;2023-01-26T11:33:02;100508.53;;;-0.36;100.00
71195;BME280;58908;51.426;7.714;2023-01-26T11:35:35;100511.13;;;-0.33;100.00
71195;BME280;58908;51.426;7.714;2023-01-26T11:38:08;100505.94;;;-0.36;100.00
71195;BME280;58908;51.426;7.714;2023-01-26T11:40:43;100501.63;;;-0.41;100.00
71195;BME280;58908;51.426;7.714;2023-01-26T11:43:16;100505.94;;;-0.31;100.00
71195;BME280;58908;51.426;7.714;2023-01-26T11:45:51;100499.03;;;-0.37;100.00
71195;BME280;58908;51.426;7.714;2023-01-26T11:48:23;100501.59;;;-0.28;100.00
71195;BME280;58908;51.426;7.714;2023-01-26T11:50:53;100498.16;;;-0.34;100.00
71195;BME280;58908;51.426;7.714;2023-01-26T11:53:29;100499.88;;;-0.35;100.00
71195;BME280;58908;51.426;7.714;2023-01-26T11:56:03;100495.59;;;-0.33;100.00
71195;BME280;58908;51.426;7.714;2023-01-26T11:58:34;100496.44;;;-0.31;100.00
71195;BME280;58908;51.426;7.714;2023-01-26T12:01:02;100487.78;;;-0.27;100.00
71195;BME280;58908;51.426;7.714;2023-01-26T12:03:32;100496.41;;;-0.23;100.00
71195;BME280;58908;51.426;7.714;2023-01-26T12:06:03;100486.06;;;-0.28;100.00
71195;BME280;58908;51.426;7.714;2023-01-26T12:08:33;100490.38;;;-0.30;100.00
71195;BME280;58908;51.426;7.714;2023-01-26T12:11:04;100492.13;;;-0.36;100.00
71195;BME280;58908;51.426;7.714;2023-01-26T12:13:45;100488.66;;;-0.35;100.00
71195;BME280;58908;51.426;7.714;2023-01-26T12:16:14;100481.75;;;-0.29;100.00
71195;BME280;58908;51.426;7.714;2023-01-26T12:18:44;100480.88;;;-0.32;100.00
71195;BME280;58908;51.426;7.714;2023-01-26T12:21:13;100480.03;;;-0.34;100.00
71195;BME280;58908;51.426;7.714;2023-01-26T12:23:42;100471.38;;;-0.35;100.00
71195;BME280;58908;51.426;7.714;2023-01-26T12:26:12;100480.03;;;-0.39;100.00
71195;BME280;58908;51.426;7.714;2023-01-26T12:28:40;100481.78;;;-0.36;100.00
71195;BME280;58908;51.426;7.714;2023-01-26T12:31:11;100471.41;;;-0.41;100.00
71195;BME280;58908;51.426;7.714;2023-01-26T12:33:41;100475.72;;;-0.38;100.00
71195;BME280;58908;51.426;7.714;2023-01-26T12:36:15;100476.59;;;-0.44;100.00
71195;BME280;58908;51.426;7.714;2023-01-26T12:38:53;100468.81;;;-0.38;100.00
71195;BME280;58908;51.426;7.714;2023-01-26T12:41:25;100459.28;;;-0.34;100.00
71195;BME280;58908;51.426;7.714;2023-01-26T12:43:59;100452.38;;;-0.32;100.00
71195;BME280;58908;51.426;7.714;2023-01-26T12:46:30;100455.84;;;-0.33;100.00
71195;BME280;58908;51.426;7.714;2023-01-26T12:48:59;100447.19;;;-0.37;100.00